createdAt,value
2018-08-25T00:00:29.787Z,16.50
2018-08-25T00:02:58.214Z,16.20
2018-08-25T00:05:26.681Z,16.20
2018-08-25T00:07:55.071Z,16.20
2018-08-25T00:10:23.449Z,16.20
2018-08-25T00:12:51.793Z,16.30
2018-08-25T00:15:20.313Z,16.30
2018-08-25T00:17:48.885Z,16.20
2018-08-25T00:20:17.311Z,16.10
2018-08-25T00:22:45.718Z,16.00
2018-08-25T00:25:14.066Z,16.10
2018-08-25T00:27:43.364Z,16.00
2018-08-25T00:30:17.184Z,16.00
2018-08-25T00:32:45.657Z,16.10
2018-08-25T00:35:14.048Z,16.10
2018-08-25T00:37:42.428Z,16.00
2018-08-25T00:40:10.872Z,16.00
2018-08-25T00:42:39.306Z,15.90
2018-08-25T00:45:07.832Z,16.00
2018-08-25T00:47:36.243Z,15.90
2018-08-25T00:50:04.760Z,15.90
2018-08-25T00:52:33.166Z,16.00
2018-08-25T00:55:01.509Z,16.10
2018-08-25T00:57:30.039Z,16.00
2018-08-25T00:59:58.434Z,15.90
2018-08-25T01:02:26.843Z,15.90
2018-08-25T01:04:55.658Z,15.90
2018-08-25T01:07:24.056Z,15.90
2018-08-25T01:09:52.422Z,15.90
2018-08-25T01:12:20.836Z,16.20
2018-08-25T01:14:49.198Z,16.10
2018-08-25T01:17:17.594Z,16.40
2018-08-25T01:19:45.986Z,16.10
2018-08-25T01:22:14.353Z,16.30
2018-08-25T01:24:42.712Z,16.10
2018-08-25T01:27:11.103Z,16.00
2018-08-25T01:29:39.463Z,15.90
2018-08-25T01:32:07.844Z,16.00
2018-08-25T01:34:36.190Z,15.90
2018-08-25T01:37:04.933Z,15.80
2018-08-25T01:39:33.277Z,15.70
2018-08-25T01:42:01.657Z,15.60
2018-08-25T01:44:30.083Z,15.70
2018-08-25T01:46:58.453Z,15.70
2018-08-25T01:49:26.832Z,15.70
2018-08-25T01:51:55.185Z,15.70
2018-08-25T01:54:23.597Z,15.60
2018-08-25T01:56:52.093Z,15.60
2018-08-25T01:59:20.507Z,15.50
2018-08-25T02:01:48.911Z,15.60
2018-08-25T02:04:17.299Z,15.50
2018-08-25T02:06:45.639Z,15.40
2018-08-25T02:09:14.387Z,15.40
2018-08-25T02:11:42.780Z,15.40
2018-08-25T02:14:11.571Z,15.40
2018-08-25T02:16:40.756Z,15.60
2018-08-25T02:19:09.206Z,15.60
2018-08-25T02:21:37.691Z,15.80
2018-08-25T02:24:06.423Z,15.70
2018-08-25T02:26:34.815Z,15.60
2018-08-25T02:29:03.513Z,15.50
2018-08-25T02:31:31.982Z,15.50
2018-08-25T02:34:00.451Z,15.50
2018-08-25T02:36:28.848Z,15.40
2018-08-25T02:38:57.211Z,15.50
2018-08-25T02:41:25.548Z,15.60
2018-08-25T02:43:53.907Z,15.70
2018-08-25T02:46:22.268Z,15.90
2018-08-25T02:48:50.908Z,15.80
2018-08-25T02:51:19.349Z,15.50
2018-08-25T02:53:47.709Z,15.70
2018-08-25T02:56:16.063Z,15.80
2018-08-25T02:58:44.456Z,15.90
2018-08-25T03:01:12.856Z,15.70
2018-08-25T03:03:41.218Z,15.50
2018-08-25T03:06:09.589Z,15.60
2018-08-25T03:08:38.674Z,15.50
2018-08-25T03:11:07.125Z,15.50
2018-08-25T03:13:35.604Z,15.40
2018-08-25T03:16:03.997Z,15.40
2018-08-25T03:18:32.374Z,15.60
2018-08-25T03:21:00.763Z,15.40
2018-08-25T03:23:29.162Z,15.40
2018-08-25T03:25:57.538Z,15.30
2018-08-25T03:28:25.917Z,15.30
2018-08-25T03:30:54.327Z,15.40
2018-08-25T03:33:22.716Z,15.40
2018-08-25T03:35:51.199Z,15.40
2018-08-25T03:38:19.564Z,15.30
2018-08-25T03:40:48.013Z,15.50
2018-08-25T03:43:16.404Z,15.50
2018-08-25T03:45:44.768Z,15.40
2018-08-25T03:48:13.151Z,15.50
2018-08-25T03:50:44.335Z,15.40
2018-08-25T03:53:12.719Z,15.40
2018-08-25T03:55:41.103Z,15.40
2018-08-25T03:58:09.515Z,15.40
2018-08-25T04:00:37.929Z,15.30
2018-08-25T04:03:06.304Z,15.20
2018-08-25T04:05:34.739Z,15.10
2018-08-25T04:08:03.115Z,15.10
2018-08-25T04:10:31.994Z,15.10
2018-08-25T04:13:00.371Z,15.10
2018-08-25T04:15:28.761Z,15.10
2018-08-25T04:17:57.471Z,15.10
2018-08-25T04:20:25.856Z,14.90
2018-08-25T04:22:54.228Z,14.90
2018-08-25T04:25:22.591Z,15.10
2018-08-25T04:27:52.034Z,15.10
2018-08-25T04:30:20.623Z,15.00
2018-08-25T04:32:49.163Z,15.00
2018-08-25T04:35:17.609Z,15.10
2018-08-25T04:37:46.024Z,15.10
2018-08-25T04:40:14.391Z,15.00
2018-08-25T04:42:42.824Z,15.10
2018-08-25T04:45:11.209Z,15.10
2018-08-25T04:47:39.614Z,15.00
2018-08-25T04:50:07.968Z,15.00
2018-08-25T04:52:36.424Z,15.10
2018-08-25T04:55:05.390Z,15.10
2018-08-25T04:57:33.786Z,15.10
2018-08-25T05:00:02.189Z,15.10
2018-08-25T05:02:30.575Z,15.10
2018-08-25T05:04:58.956Z,15.20
2018-08-25T05:07:27.318Z,15.20
2018-08-25T05:09:57.230Z,15.10
2018-08-25T05:12:25.612Z,15.20
2018-08-25T05:14:55.638Z,15.30
2018-08-25T05:17:24.162Z,15.30
2018-08-25T05:19:52.563Z,15.20
2018-08-25T05:22:21.562Z,15.20
2018-08-25T05:24:49.930Z,15.30
2018-08-25T05:27:18.323Z,15.10
2018-08-25T05:29:46.757Z,15.40
2018-08-25T05:32:15.142Z,15.50
2018-08-25T05:34:43.519Z,15.40
2018-08-25T05:37:12.335Z,15.50
2018-08-25T05:39:40.691Z,15.50
2018-08-25T05:42:09.187Z,15.50
2018-08-25T05:44:38.121Z,15.50
2018-08-25T05:47:06.533Z,15.70
2018-08-25T05:49:34.987Z,15.80
2018-08-25T05:52:03.395Z,15.70
2018-08-25T05:54:31.834Z,15.60
2018-08-25T05:57:00.232Z,15.60
2018-08-25T05:59:28.637Z,15.50
2018-08-25T06:01:57.109Z,15.60
2018-08-25T06:04:25.503Z,15.90
2018-08-25T06:06:53.841Z,15.80
2018-08-25T06:09:22.880Z,16.20
2018-08-25T06:11:51.283Z,17.40
2018-08-25T06:14:19.699Z,17.70
2018-08-25T06:16:48.122Z,18.30
2018-08-25T06:19:16.462Z,18.10
2018-08-25T06:21:44.883Z,18.20
2018-08-25T06:24:13.234Z,18.50
2018-08-25T06:26:41.654Z,18.40
2018-08-25T06:29:09.988Z,19.00
2018-08-25T06:31:38.370Z,20.00
2018-08-25T06:34:06.890Z,19.80
2018-08-25T06:36:35.345Z,20.80
2018-08-25T06:39:04.380Z,20.20
2018-08-25T06:41:32.744Z,19.60
2018-08-25T06:44:01.184Z,19.50
2018-08-25T06:46:29.564Z,19.20
2018-08-25T06:48:57.952Z,20.00
2018-08-25T06:51:26.302Z,19.70
2018-08-25T06:53:54.743Z,19.90
2018-08-25T06:56:23.179Z,19.70
2018-08-25T06:58:51.564Z,20.70
2018-08-25T07:01:19.888Z,20.00
2018-08-25T07:03:48.321Z,20.30
2018-08-25T07:06:16.756Z,20.90
2018-08-25T07:08:45.199Z,20.50
2018-08-25T07:11:13.628Z,20.40
2018-08-25T07:13:42.066Z,20.30
2018-08-25T07:16:10.479Z,21.10
2018-08-25T07:18:38.942Z,21.70
2018-08-25T07:21:07.346Z,21.00
2018-08-25T07:23:35.755Z,21.10
2018-08-25T07:26:04.199Z,21.60
2018-08-25T07:28:32.528Z,22.10
2018-08-25T07:31:00.917Z,22.40
2018-08-25T07:33:29.309Z,22.30
2018-08-25T07:35:57.803Z,22.10
2018-08-25T07:38:26.342Z,22.00
2018-08-25T07:40:54.635Z,23.00
2018-08-25T07:43:23.012Z,23.20
2018-08-25T07:45:51.387Z,23.10
2018-08-25T07:48:19.757Z,23.30
2018-08-25T07:50:48.233Z,22.90
2018-08-25T07:53:16.641Z,23.90
2018-08-25T07:55:44.983Z,25.40
2018-08-25T07:58:13.479Z,25.50
2018-08-25T08:00:42.299Z,26.00
2018-08-25T08:03:10.681Z,24.70
2018-08-25T08:05:39.257Z,24.40
2018-08-25T08:08:07.481Z,24.50
2018-08-25T08:10:35.889Z,24.40
2018-08-25T08:13:04.321Z,24.20
2018-08-25T08:15:32.695Z,23.70
2018-08-25T08:18:01.343Z,23.90
2018-08-25T08:20:29.799Z,24.90
2018-08-25T08:22:58.180Z,24.60
2018-08-25T08:25:26.561Z,25.40
2018-08-25T08:27:54.916Z,24.50
2018-08-25T08:30:23.340Z,25.50
2018-08-25T08:32:51.757Z,25.20
2018-08-25T08:35:20.096Z,24.60
2018-08-25T08:37:48.536Z,25.10
2018-08-25T08:40:16.960Z,26.10
2018-08-25T08:42:45.362Z,26.70
2018-08-25T08:45:13.772Z,24.80
2018-08-25T08:47:42.175Z,25.90
2018-08-25T08:50:11.028Z,24.80
2018-08-25T08:52:39.957Z,25.90
2018-08-25T08:55:08.706Z,27.50
2018-08-25T08:57:37.667Z,25.60
2018-08-25T09:00:06.369Z,25.40
2018-08-25T09:02:34.781Z,26.80
2018-08-25T09:05:03.710Z,25.40
2018-08-25T09:07:32.220Z,25.30
2018-08-25T09:10:00.607Z,26.60
2018-08-25T09:12:29.006Z,25.40
2018-08-25T09:14:57.422Z,24.60
2018-08-25T09:17:25.766Z,24.80
2018-08-25T09:19:54.131Z,24.60
2018-08-25T09:22:22.708Z,24.90
2018-08-25T09:24:51.379Z,25.00
2018-08-25T09:27:19.929Z,24.20
2018-08-25T09:29:48.296Z,24.40
2018-08-25T09:32:17.004Z,24.70
2018-08-25T09:34:45.408Z,25.40
2018-08-25T09:37:13.923Z,27.60
2018-08-25T09:39:42.335Z,26.00
2018-08-25T09:42:10.704Z,24.90
2018-08-25T09:44:39.041Z,23.80
2018-08-25T09:47:07.622Z,23.30
2018-08-25T09:49:36.255Z,23.20
2018-08-25T09:52:04.691Z,22.90
2018-08-25T09:54:33.109Z,23.90
2018-08-25T09:57:01.567Z,23.30
2018-08-25T09:59:30.006Z,23.40
2018-08-25T10:01:59.254Z,22.70
2018-08-25T10:04:28.348Z,22.50
2018-08-25T10:06:56.827Z,23.20
2018-08-25T10:09:25.259Z,23.60
2018-08-25T10:11:53.736Z,23.60
2018-08-25T10:14:22.262Z,23.70
2018-08-25T10:16:50.862Z,22.70
2018-08-25T10:19:19.185Z,22.20
2018-08-25T10:21:47.538Z,21.80
2018-08-25T10:24:16.011Z,21.50
2018-08-25T10:26:44.411Z,21.80
2018-08-25T10:29:12.794Z,23.00
2018-08-25T10:31:41.180Z,22.10
2018-08-25T10:34:09.556Z,22.10
2018-08-25T10:36:38.066Z,21.70
2018-08-25T10:39:10.840Z,21.10
2018-08-25T10:41:39.381Z,21.20
2018-08-25T10:44:08.396Z,21.30
2018-08-25T10:46:37.652Z,21.00
2018-08-25T10:49:06.304Z,21.70
2018-08-25T10:51:34.914Z,21.20
2018-08-25T10:54:03.412Z,21.50
2018-08-25T10:56:31.956Z,21.20
2018-08-25T10:59:00.426Z,20.60
2018-08-25T11:01:29.741Z,20.30
2018-08-25T11:03:58.247Z,20.00
2018-08-25T11:06:26.688Z,19.50
2018-08-25T11:08:55.305Z,19.20
2018-08-25T11:11:23.920Z,18.90
2018-08-25T11:13:52.332Z,19.00
2018-08-25T11:16:20.720Z,18.90
2018-08-25T11:18:49.093Z,18.40
2018-08-25T11:21:17.836Z,18.30
2018-08-25T11:23:46.244Z,17.90
2018-08-25T11:26:14.745Z,17.70
2018-08-25T11:28:43.228Z,17.50
2018-08-25T11:31:11.833Z,17.10
2018-08-25T11:33:40.226Z,16.60
2018-08-25T11:36:08.972Z,16.40
2018-08-25T11:38:37.388Z,16.40
2018-08-25T11:41:05.908Z,16.30
2018-08-25T11:43:34.345Z,16.40
2018-08-25T11:46:02.776Z,16.60
2018-08-25T11:48:31.197Z,16.70
2018-08-25T11:50:59.605Z,17.00
2018-08-25T11:53:27.982Z,16.80
2018-08-25T11:55:56.363Z,16.50
2018-08-25T11:58:24.761Z,16.00
2018-08-25T12:00:53.155Z,16.00
2018-08-25T12:03:21.519Z,15.90
2018-08-25T12:05:50.237Z,15.80
2018-08-25T12:08:18.653Z,16.00
2018-08-25T12:10:47.047Z,16.20
2018-08-25T12:13:15.419Z,16.50
2018-08-25T12:15:43.795Z,17.00
2018-08-25T12:18:12.233Z,17.70
2018-08-25T12:20:40.615Z,18.00
2018-08-25T12:23:08.975Z,18.20
2018-08-25T12:25:37.405Z,18.10
2018-08-25T12:28:05.950Z,18.40
2018-08-25T12:30:34.455Z,18.50
2018-08-25T12:33:03.703Z,18.50
2018-08-25T12:35:32.320Z,18.20
2018-08-25T12:38:00.694Z,18.80
2018-08-25T12:40:29.068Z,18.60
2018-08-25T12:42:57.472Z,18.40
2018-08-25T12:45:26.098Z,19.00
2018-08-25T12:47:55.180Z,19.00
2018-08-25T12:50:23.572Z,18.90
2018-08-25T12:52:51.961Z,18.90
2018-08-25T12:55:20.393Z,19.20
2018-08-25T12:57:48.834Z,19.20
2018-08-25T13:00:17.212Z,19.10
2018-08-25T13:02:45.650Z,19.10
2018-08-25T13:05:14.042Z,19.10
2018-08-25T13:07:42.439Z,19.30
2018-08-25T13:10:10.835Z,18.80
2018-08-25T13:12:39.219Z,18.90
2018-08-25T13:15:07.788Z,19.80
2018-08-25T13:17:38.100Z,20.20
2018-08-25T13:20:06.926Z,20.10
2018-08-25T13:22:35.295Z,19.30
2018-08-25T13:25:03.777Z,19.70
2018-08-25T13:27:32.089Z,20.10
2018-08-25T13:30:00.496Z,20.10
2018-08-25T13:32:28.924Z,19.80
2018-08-25T13:34:57.323Z,19.90
2018-08-25T13:37:25.690Z,19.70
2018-08-25T13:39:54.104Z,19.70
2018-08-25T13:42:22.503Z,19.80
2018-08-25T13:44:50.921Z,19.80
2018-08-25T13:47:19.321Z,19.60
2018-08-25T13:49:47.739Z,19.40
2018-08-25T13:52:16.804Z,19.50
2018-08-25T13:54:45.247Z,19.50
2018-08-25T13:57:13.674Z,19.70
2018-08-25T13:59:42.283Z,20.40
2018-08-25T14:02:11.047Z,20.10
2018-08-25T14:04:39.387Z,20.10
2018-08-25T14:07:07.855Z,20.00
2018-08-25T14:09:36.229Z,19.80
2018-08-25T14:12:04.739Z,19.70
2018-08-25T14:14:33.413Z,19.30
2018-08-25T14:17:01.786Z,19.00
2018-08-25T14:19:30.137Z,19.20
2018-08-25T14:21:58.587Z,19.40
2018-08-25T14:24:26.982Z,19.40
2018-08-25T14:26:55.507Z,19.50
2018-08-25T14:29:23.903Z,19.50
2018-08-25T14:31:52.249Z,19.60
2018-08-25T14:34:20.652Z,19.90
2018-08-25T14:36:49.034Z,19.90
2018-08-25T14:39:17.364Z,20.00
2018-08-25T14:41:45.811Z,19.80
2018-08-25T14:44:14.128Z,19.70
2018-08-25T14:46:42.498Z,19.70
2018-08-25T14:49:10.880Z,19.50
2018-08-25T14:51:39.284Z,19.40
2018-08-25T14:54:07.674Z,19.20
2018-08-25T14:56:36.103Z,19.70
2018-08-25T14:59:04.820Z,19.80
2018-08-25T15:01:33.208Z,19.70
2018-08-25T15:04:01.678Z,19.60
2018-08-25T15:06:30.080Z,19.20
2018-08-25T15:08:58.512Z,19.40
2018-08-25T15:11:26.937Z,19.70
2018-08-25T15:13:55.296Z,19.80
2018-08-25T15:16:23.688Z,20.20
2018-08-25T15:18:52.133Z,20.40
2018-08-25T15:21:20.552Z,20.40
2018-08-25T15:23:49.022Z,20.50
2018-08-25T15:26:17.440Z,20.30
2018-08-25T15:28:47.837Z,19.90
2018-08-25T15:31:16.237Z,19.20
2018-08-25T15:33:44.612Z,18.90
2018-08-25T15:36:12.992Z,18.90
2018-08-25T15:38:41.425Z,19.00
2018-08-25T15:41:09.839Z,19.00
2018-08-25T15:43:38.273Z,19.40
2018-08-25T15:46:06.658Z,19.80
2018-08-25T15:48:35.015Z,19.90
2018-08-25T15:51:03.440Z,20.00
2018-08-25T15:53:31.807Z,19.90
2018-08-25T15:56:00.217Z,19.70
2018-08-25T15:58:28.605Z,19.70
2018-08-25T16:00:57.040Z,19.30
2018-08-25T16:03:25.433Z,19.40
2018-08-25T16:05:53.932Z,19.20
2018-08-25T16:08:22.271Z,19.30
2018-08-25T16:10:50.788Z,19.20
2018-08-25T16:13:19.191Z,19.10
2018-08-25T16:15:47.613Z,19.10
2018-08-25T16:18:16.004Z,19.00
2018-08-25T16:20:44.379Z,18.80
2018-08-25T16:23:12.784Z,18.60
2018-08-25T16:25:41.226Z,18.60
2018-08-25T16:28:09.964Z,18.50
2018-08-25T16:30:38.361Z,18.50
2018-08-25T16:33:06.750Z,18.60
2018-08-25T16:35:35.144Z,18.50
2018-08-25T16:38:03.527Z,18.60
2018-08-25T16:40:31.936Z,18.40
2018-08-25T16:43:00.324Z,18.20
2018-08-25T16:45:28.719Z,18.20
2018-08-25T16:47:57.124Z,18.10
2018-08-25T16:50:25.566Z,18.20
2018-08-25T16:52:54.108Z,18.20
2018-08-25T16:55:22.723Z,18.10
2018-08-25T16:57:51.336Z,18.00
2018-08-25T17:00:19.754Z,17.90
2018-08-25T17:02:48.087Z,17.90
2018-08-25T17:05:16.464Z,17.70
2018-08-25T17:07:44.846Z,17.50
2018-08-25T17:10:13.250Z,17.50
2018-08-25T17:12:41.612Z,17.40
2018-08-25T17:15:10.063Z,17.40
2018-08-25T17:17:38.360Z,17.40
2018-08-25T17:20:06.758Z,17.40
2018-08-25T17:22:35.152Z,17.20
2018-08-25T17:25:03.532Z,17.20
2018-08-25T17:27:32.148Z,17.10
2018-08-25T17:30:00.536Z,17.10
2018-08-25T17:32:29.002Z,17.00
2018-08-25T17:34:57.396Z,17.00
2018-08-25T17:37:25.758Z,16.90
2018-08-25T17:39:54.171Z,16.90
2018-08-25T17:42:22.564Z,16.90
2018-08-25T17:44:51.528Z,17.00
2018-08-25T17:47:19.925Z,16.70
2018-08-25T17:49:48.333Z,16.70
2018-08-25T17:52:16.988Z,16.60
2018-08-25T17:54:45.453Z,16.60
2018-08-25T17:57:13.926Z,16.60
2018-08-25T17:59:42.187Z,16.60
2018-08-25T18:02:10.622Z,16.50
2018-08-25T18:04:39.135Z,16.40
2018-08-25T18:07:07.509Z,16.30
2018-08-25T18:09:35.919Z,16.10
2018-08-25T18:12:04.349Z,16.30
2018-08-25T18:14:32.739Z,16.30
2018-08-25T18:17:01.159Z,16.30
2018-08-25T18:19:29.615Z,16.20
2018-08-25T18:21:58.064Z,16.10
2018-08-25T18:24:26.435Z,16.00
2018-08-25T18:26:54.969Z,16.00
2018-08-25T18:29:23.379Z,15.90
2018-08-25T18:31:51.805Z,15.90
2018-08-25T18:34:20.119Z,15.80
2018-08-25T18:36:48.583Z,15.80
2018-08-25T18:39:16.903Z,15.90
2018-08-25T18:41:45.280Z,15.70
2018-08-25T18:44:14.456Z,15.60
2018-08-25T18:46:42.843Z,15.60
2018-08-25T18:49:11.252Z,15.50
2018-08-25T18:51:40.216Z,15.60
2018-08-25T18:54:08.549Z,15.50
2018-08-25T18:56:36.976Z,15.50
2018-08-25T18:59:05.670Z,15.40
2018-08-25T19:01:34.928Z,15.40
2018-08-25T19:04:03.451Z,15.70
2018-08-25T19:06:31.867Z,15.50
2018-08-25T19:09:00.347Z,15.30
2018-08-25T19:11:28.800Z,15.40
2018-08-25T19:13:57.241Z,15.40
2018-08-25T19:16:27.076Z,15.40
2018-08-25T19:18:55.490Z,15.20
2018-08-25T19:21:25.944Z,15.20
2018-08-25T19:23:55.421Z,15.20
2018-08-25T19:26:25.735Z,15.20
2018-08-25T19:28:54.125Z,15.20
2018-08-25T19:31:22.569Z,15.00
2018-08-25T19:33:51.745Z,15.10
2018-08-25T19:36:20.185Z,14.80
2018-08-25T19:38:48.651Z,14.70
2018-08-25T19:41:17.503Z,14.90
2018-08-25T19:43:45.869Z,14.90
2018-08-25T19:46:15.125Z,14.80
2018-08-25T19:48:43.557Z,14.70
2018-08-25T19:51:11.909Z,14.70
2018-08-25T19:53:40.317Z,14.70
2018-08-25T19:56:08.730Z,14.50
2018-08-25T19:58:37.198Z,14.50
2018-08-25T20:01:05.815Z,14.60
2018-08-25T20:03:34.401Z,14.50
2018-08-25T20:06:02.874Z,14.40
2018-08-25T20:08:31.776Z,14.40
2018-08-25T20:11:00.161Z,14.30
2018-08-25T20:13:28.631Z,14.20
2018-08-25T20:15:57.853Z,14.10
2018-08-25T20:18:27.315Z,14.10
2018-08-25T20:20:55.711Z,14.20
2018-08-25T20:23:24.007Z,14.30
2018-08-25T20:25:53.347Z,14.20
2018-08-25T20:28:22.347Z,14.30
2018-08-25T20:30:51.303Z,14.40
2018-08-25T20:33:19.690Z,14.30
2018-08-25T20:35:48.145Z,14.40
2018-08-25T20:38:16.960Z,14.30
2018-08-25T20:40:45.420Z,14.30
2018-08-25T20:43:13.864Z,14.30
2018-08-25T20:45:42.289Z,14.60
2018-08-25T20:48:10.624Z,14.70
2018-08-25T20:50:39.027Z,14.90
2018-08-25T20:53:07.396Z,14.70
2018-08-25T20:55:35.734Z,14.60
2018-08-25T20:58:04.179Z,14.50
2018-08-25T21:00:32.538Z,14.50
2018-08-25T21:03:00.980Z,14.50
2018-08-25T21:05:31.336Z,14.50
2018-08-25T21:07:59.671Z,14.70
2018-08-25T21:10:28.067Z,14.60
2018-08-25T21:12:56.415Z,14.60
2018-08-25T21:15:25.564Z,14.40
2018-08-25T21:17:54.351Z,14.50
2018-08-25T21:20:22.860Z,14.40
2018-08-25T21:22:51.311Z,14.40
2018-08-25T21:25:20.215Z,14.40
2018-08-25T21:27:49.704Z,14.40
2018-08-25T21:30:18.143Z,14.40
2018-08-25T21:32:46.488Z,14.40
2018-08-25T21:35:14.942Z,14.50
2018-08-25T21:37:43.922Z,14.50
2018-08-25T21:40:12.344Z,14.60
2018-08-25T21:42:40.698Z,14.60
2018-08-25T21:45:10.166Z,14.60
2018-08-25T21:47:38.694Z,14.70
2018-08-25T21:50:07.229Z,14.80
2018-08-25T21:52:35.645Z,14.60
2018-08-25T21:55:04.125Z,14.70
2018-08-25T21:57:32.771Z,14.70
2018-08-25T22:00:01.124Z,14.80
2018-08-25T22:02:29.637Z,14.70
2018-08-25T22:04:58.079Z,14.70
2018-08-25T22:07:26.555Z,14.80
2018-08-25T22:09:54.969Z,14.80
2018-08-25T22:12:23.341Z,14.70
2018-08-25T22:14:51.750Z,14.60
2018-08-25T22:17:20.135Z,14.50
2018-08-25T22:19:48.552Z,14.50
2018-08-25T22:22:17.359Z,14.30
2018-08-25T22:24:45.698Z,14.30
2018-08-25T22:27:14.127Z,14.40
2018-08-25T22:29:42.532Z,14.30
2018-08-25T22:32:10.990Z,14.20
2018-08-25T22:34:39.369Z,14.10
2018-08-25T22:37:07.999Z,14.20
2018-08-25T22:39:36.331Z,14.10
2018-08-25T22:42:05.032Z,14.00
2018-08-25T22:44:33.412Z,14.00
2018-08-25T22:47:01.916Z,14.00
2018-08-25T22:49:30.344Z,14.00
2018-08-25T22:51:58.713Z,13.90
2018-08-25T22:54:27.293Z,13.80
2018-08-25T22:56:55.664Z,13.80
2018-08-25T22:59:24.084Z,13.70
2018-08-25T23:01:52.468Z,13.70
2018-08-25T23:04:20.856Z,13.80
2018-08-25T23:06:49.186Z,13.80
2018-08-25T23:09:17.604Z,13.70
2018-08-25T23:11:45.997Z,13.60
2018-08-25T23:14:14.924Z,13.70
2018-08-25T23:16:43.342Z,13.50
2018-08-25T23:19:11.714Z,13.20
2018-08-25T23:21:40.072Z,13.10
2018-08-25T23:24:08.452Z,13.10
2018-08-25T23:26:36.930Z,13.30
2018-08-25T23:29:05.584Z,13.30
2018-08-25T23:31:33.973Z,13.30
2018-08-25T23:34:02.360Z,13.20
2018-08-25T23:36:30.959Z,13.20
2018-08-25T23:38:59.406Z,13.30
2018-08-25T23:41:27.853Z,13.30
2018-08-25T23:43:56.230Z,13.10
2018-08-25T23:46:24.626Z,13.30
2018-08-25T23:48:53.025Z,13.20
2018-08-25T23:51:21.498Z,13.10
2018-08-25T23:53:49.902Z,13.00
2018-08-25T23:56:18.303Z,13.00
2018-08-25T23:58:46.675Z,12.90
